sensor_id;sensor_type;location;lat;lon;timestamp;P1;durP1;ratioP1;P2;durP2;ratioP2
11486;SDS011;10510;47.942;9.442;2023-04-06T00:01:30;14.30;;;8.20;;
11486;SDS011;10510;47.942;9.442;2023-04-06T00:03:30;13.57;;;7.93;;
11486;SDS011;10510;47.942;9.442;2023-04-06T00:05:30;13.75;;;7.57;;
11486;SDS011;10510;47.942;9.442;2023-04-06T00:07:31;13.65;;;7.65;;
11486;SDS011;10510;47.942;9.442;2023-04-06T00:09:33;15.90;;;7.13;;
11486;SDS011;10510;47.942;9.442;2023-04-06T00:11:33;13.88;;;7.85;;
11486;SDS011;10510;47.942;9.442;2023-04-06T00:13:33;15.35;;;8.05;;
11486;SDS011;10510;47.942;9.442;2023-04-06T00:15:34;14.60;;;7.80;;
11486;SDS011;10510;47.942;9.442;2023-04-06T00:17:34;19.42;;;9.05;;
11486;SDS011;10510;47.942;9.442;2023-04-06T00:19:35;12.65;;;7.63;;
11486;SDS011;10510;47.942;9.442;2023-04-06T00:21:35;18.70;;;10.48;;
11486;SDS011;10510;47.942;9.442;2023-04-06T00:23:35;19.80;;;11.80;;
11486;SDS011;10510;47.942;9.442;2023-04-06T00:25:35;18.05;;;11.65;;
11486;SDS011;10510;47.942;9.442;2023-04-06T00:27:36;18.38;;;9.93;;
11486;SDS011;10510;47.942;9.442;2023-04-06T00:29:37;17.75;;;9.07;;
11486;SDS011;10510;47.942;9.442;2023-04-06T00:31:38;20.20;;;9.32;;
11486;SDS011;10510;47.942;9.442;2023-04-06T00:33:38;14.27;;;7.95;;
11486;SDS011;10510;47.942;9.442;2023-04-06T00:35:39;14.10;;;7.95;;
11486;SDS011;10510;47.942;9.442;2023-04-06T00:37:39;14.85;;;8.35;;
11486;SDS011;10510;47.942;9.442;2023-04-06T00:39:40;14.85;;;8.23;;
11486;SDS011;10510;47.942;9.442;2023-04-06T00:41:41;16.83;;;7.82;;
11486;SDS011;10510;47.942;9.442;2023-04-06T00:43:49;14.00;;;8.07;;
11486;SDS011;10510;47.942;9.442;2023-04-06T00:45:49;11.93;;;7.70;;
11486;SDS011;10510;47.942;9.442;2023-04-06T00:47:49;14.02;;;7.45;;
11486;SDS011;10510;47.942;9.442;2023-04-06T00:49:50;17.60;;;8.70;;
11486;SDS011;10510;47.942;9.442;2023-04-06T00:51:50;15.52;;;7.68;;
11486;SDS011;10510;47.942;9.442;2023-04-06T00:53:51;13.48;;;7.18;;
11486;SDS011;10510;47.942;9.442;2023-04-06T00:55:51;15.55;;;8.20;;
11486;SDS011;10510;47.942;9.442;2023-04-06T00:57:52;19.95;;;9.18;;
11486;SDS011;10510;47.942;9.442;2023-04-06T00:59:52;16.67;;;7.20;;
11486;SDS011;10510;47.942;9.442;2023-04-06T01:01:53;18.27;;;8.18;;
11486;SDS011;10510;47.942;9.442;2023-04-06T01:03:53;16.95;;;7.68;;
11486;SDS011;10510;47.942;9.442;2023-04-06T01:05:54;16.50;;;8.10;;
11486;SDS011;10510;47.942;9.442;2023-04-06T01:07:58;20.05;;;8.13;;
11486;SDS011;10510;47.942;9.442;2023-04-06T01:09:58;17.23;;;7.80;;
11486;SDS011;10510;47.942;9.442;2023-04-06T01:11:58;15.48;;;8.00;;
11486;SDS011;10510;47.942;9.442;2023-04-06T01:13:59;17.85;;;8.00;;
11486;SDS011;10510;47.942;9.442;2023-04-06T01:15:59;14.73;;;7.93;;
11486;SDS011;10510;47.942;9.442;2023-04-06T01:17:59;18.67;;;8.55;;
11486;SDS011;10510;47.942;9.442;2023-04-06T01:19:59;17.73;;;8.15;;
11486;SDS011;10510;47.942;9.442;2023-04-06T01:22:00;17.77;;;8.20;;
11486;SDS011;10510;47.942;9.442;2023-04-06T01:24:00;19.48;;;8.23;;
11486;SDS011;10510;47.942;9.442;2023-04-06T01:26:00;14.93;;;7.65;;
11486;SDS011;10510;47.942;9.442;2023-04-06T01:28:01;14.38;;;7.22;;
11486;SDS011;10510;47.942;9.442;2023-04-06T01:30:01;18.52;;;8.63;;
11486;SDS011;10510;47.942;9.442;2023-04-06T01:32:02;13.88;;;7.78;;
11486;SDS011;10510;47.942;9.442;2023-04-06T01:34:02;15.02;;;7.97;;
11486;SDS011;10510;47.942;9.442;2023-04-06T01:36:03;16.65;;;8.43;;
11486;SDS011;10510;47.942;9.442;2023-04-06T01:38:04;22.33;;;8.57;;
11486;SDS011;10510;47.942;9.442;2023-04-06T01:40:04;16.23;;;9.00;;
11486;SDS011;10510;47.942;9.442;2023-04-06T01:42:05;14.93;;;7.57;;
11486;SDS011;10510;47.942;9.442;2023-04-06T01:44:06;16.52;;;8.82;;
11486;SDS011;10510;47.942;9.442;2023-04-06T01:46:06;18.98;;;9.23;;
11486;SDS011;10510;47.942;9.442;2023-04-06T01:48:07;19.95;;;9.20;;
11486;SDS011;10510;47.942;9.442;2023-04-06T01:50:07;19.60;;;9.13;;
11486;SDS011;10510;47.942;9.442;2023-04-06T01:52:08;17.65;;;8.32;;
11486;SDS011;10510;47.942;9.442;2023-04-06T01:54:08;16.67;;;8.90;;
11486;SDS011;10510;47.942;9.442;2023-04-06T01:56:08;18.83;;;8.05;;
11486;SDS011;10510;47.942;9.442;2023-04-06T01:58:09;16.63;;;8.95;;
11486;SDS011;10510;47.942;9.442;2023-04-06T02:00:10;15.63;;;8.68;;
11486;SDS011;10510;47.942;9.442;2023-04-06T02:02:11;21.95;;;10.13;;
11486;SDS011;10510;47.942;9.442;2023-04-06T02:04:12;17.63;;;9.40;;
11486;SDS011;10510;47.942;9.442;2023-04-06T02:06:14;19.50;;;9.13;;
11486;SDS011;10510;47.942;9.442;2023-04-06T02:08:14;15.38;;;8.48;;
11486;SDS011;10510;47.942;9.442;2023-04-06T02:10:14;22.90;;;9.52;;
11486;SDS011;10510;47.942;9.442;2023-04-06T02:12:15;16.63;;;8.68;;
11486;SDS011;10510;47.942;9.442;2023-04-06T02:14:15;17.98;;;9.35;;
11486;SDS011;10510;47.942;9.442;2023-04-06T02:16:15;18.67;;;9.57;;
11486;SDS011;10510;47.942;9.442;2023-04-06T02:18:16;15.75;;;8.60;;
11486;SDS011;10510;47.942;9.442;2023-04-06T02:20:18;18.42;;;9.20;;
11486;SDS011;10510;47.942;9.442;2023-04-06T02:22:18;18.45;;;8.80;;
11486;SDS011;10510;47.942;9.442;2023-04-06T02:24:18;15.88;;;8.57;;
11486;SDS011;10510;47.942;9.442;2023-04-06T02:26:18;19.20;;;8.85;;
11486;SDS011;10510;47.942;9.442;2023-04-06T02:28:20;20.17;;;8.88;;
11486;SDS011;10510;47.942;9.442;2023-04-06T02:30:20;15.63;;;8.75;;
11486;SDS011;10510;47.942;9.442;2023-04-06T02:32:20;14.40;;;8.98;;
11486;SDS011;10510;47.942;9.442;2023-04-06T02:34:21;16.73;;;9.27;;
11486;SDS011;10510;47.942;9.442;2023-04-06T02:36:21;14.25;;;7.97;;
11486;SDS011;10510;47.942;9.442;2023-04-06T02:38:21;15.75;;;8.63;;
11486;SDS011;10510;47.942;9.442;2023-04-06T02:40:21;16.50;;;8.25;;
11486;SDS011;10510;47.942;9.442;2023-04-06T02:42:22;13.40;;;7.10;;
11486;SDS011;10510;47.942;9.442;2023-04-06T02:44:22;17.80;;;7.95;;
11486;SDS011;10510;47.942;9.442;2023-04-06T02:46:22;17.85;;;8.80;;
11486;SDS011;10510;47.942;9.442;2023-04-06T02:48:23;15.13;;;8.40;;
11486;SDS011;10510;47.942;9.442;2023-04-06T02:50:23;16.45;;;8.25;;
11486;SDS011;10510;47.942;9.442;2023-04-06T02:52:23;14.73;;;8.18;;
11486;SDS011;10510;47.942;9.442;2023-04-06T02:54:24;17.90;;;8.15;;
11486;SDS011;10510;47.942;9.442;2023-04-06T02:56:24;13.27;;;7.93;;
11486;SDS011;10510;47.942;9.442;2023-04-06T02:58:24;15.23;;;7.97;;
11486;SDS011;10510;47.942;9.442;2023-04-06T03:00:25;17.30;;;8.52;;
11486;SDS011;10510;47.942;9.442;2023-04-06T03:02:25;17.65;;;8.85;;
11486;SDS011;10510;47.942;9.442;2023-04-06T03:04:25;18.70;;;9.00;;
11486;SDS011;10510;47.942;9.442;2023-04-06T03:06:26;17.27;;;8.43;;
11486;SDS011;10510;47.942;9.442;2023-04-06T03:08:26;24.73;;;8.95;;
11486;SDS011;10510;47.942;9.442;2023-04-06T03:10:26;16.30;;;7.80;;
11486;SDS011;10510;47.942;9.442;2023-04-06T03:12:26;19.98;;;9.95;;
11486;SDS011;10510;47.942;9.442;2023-04-06T03:14:27;15.40;;;8.40;;
11486;SDS011;10510;47.942;9.442;2023-04-06T03:16:28;20.38;;;9.15;;
11486;SDS011;10510;47.942;9.442;2023-04-06T03:18:28;15.35;;;8.40;;
11486;SDS011;10510;47.942;9.442;2023-04-06T03:20:28;17.40;;;8.98;;
11486;SDS011;10510;47.942;9.442;2023-04-06T03:22:28;18.88;;;8.85;;
11486;SDS011;10510;47.942;9.442;2023-04-06T03:24:29;19.05;;;9.68;;
11486;SDS011;10510;47.942;9.442;2023-04-06T03:26:30;15.65;;;8.90;;
11486;SDS011;10510;47.942;9.442;2023-04-06T03:28:30;19.35;;;9.13;;
11486;SDS011;10510;47.942;9.442;2023-04-06T03:30:30;20.23;;;9.40;;
11486;SDS011;10510;47.942;9.442;2023-04-06T03:32:30;18.17;;;9.40;;
11486;SDS011;10510;47.942;9.442;2023-04-06T03:34:31;21.10;;;9.35;;
11486;SDS011;10510;47.942;9.442;2023-04-06T03:36:31;17.02;;;8.10;;
11486;SDS011;10510;47.942;9.442;2023-04-06T03:38:31;18.25;;;8.50;;
11486;SDS011;10510;47.942;9.442;2023-04-06T03:40:32;23.92;;;10.02;;
11486;SDS011;10510;47.942;9.442;2023-04-06T03:42:32;14.85;;;7.93;;
11486;SDS011;10510;47.942;9.442;2023-04-06T03:44:32;21.20;;;9.35;;
11486;SDS011;10510;47.942;9.442;2023-04-06T03:46:33;16.55;;;8.73;;
11486;SDS011;10510;47.942;9.442;2023-04-06T03:48:33;16.35;;;7.63;;
11486;SDS011;10510;47.942;9.442;2023-04-06T03:50:33;23.45;;;8.85;;
11486;SDS011;10510;47.942;9.442;2023-04-06T03:52:34;15.85;;;8.27;;
11486;SDS011;10510;47.942;9.442;2023-04-06T03:54:35;15.52;;;8.38;;
11486;SDS011;10510;47.942;9.442;2023-04-06T03:56:35;17.80;;;7.68;;
11486;SDS011;10510;47.942;9.442;2023-04-06T03:58:35;16.30;;;8.00;;
11486;SDS011;10510;47.942;9.442;2023-04-06T04:00:35;15.68;;;7.82;;
11486;SDS011;10510;47.942;9.442;2023-04-06T04:02:36;17.75;;;9.20;;
11486;SDS011;10510;47.942;9.442;2023-04-06T04:04:36;17.35;;;9.30;;
11486;SDS011;10510;47.942;9.442;2023-04-06T04:06:36;15.23;;;8.38;;
11486;SDS011;10510;47.942;9.442;2023-04-06T04:08:36;23.30;;;9.75;;
11486;SDS011;10510;47.942;9.442;2023-04-06T04:10:36;15.82;;;8.15;;
11486;SDS011;10510;47.942;9.442;2023-04-06T04:12:37;23.17;;;11.23;;
11486;SDS011;10510;47.942;9.442;2023-04-06T04:14:37;21.42;;;9.68;;
11486;SDS011;10510;47.942;9.442;2023-04-06T04:16:37;18.42;;;9.63;;
11486;SDS011;10510;47.942;9.442;2023-04-06T04:18:39;25.30;;;13.02;;
11486;SDS011;10510;47.942;9.442;2023-04-06T04:20:39;29.02;;;12.85;;
11486;SDS011;10510;47.942;9.442;2023-04-06T04:22:40;26.10;;;10.90;;
11486;SDS011;10510;47.942;9.442;2023-04-06T04:24:40;16.45;;;9.75;;
11486;SDS011;10510;47.942;9.442;2023-04-06T04:26:40;19.85;;;8.70;;
11486;SDS011;10510;47.942;9.442;2023-04-06T04:28:41;16.10;;;8.50;;
11486;SDS011;10510;47.942;9.442;2023-04-06T04:30:41;26.13;;;9.55;;
11486;SDS011;10510;47.942;9.442;2023-04-06T04:32:41;18.17;;;10.13;;
11486;SDS011;10510;47.942;9.442;2023-04-06T04:34:41;16.52;;;8.52;;
11486;SDS011;10510;47.942;9.442;2023-04-06T04:36:42;19.05;;;9.25;;
11486;SDS011;10510;47.942;9.442;2023-04-06T04:38:42;19.10;;;9.32;;
11486;SDS011;10510;47.942;9.442;2023-04-06T04:40:42;21.73;;;10.13;;
11486;SDS011;10510;47.942;9.442;2023-04-06T04:42:42;19.52;;;8.43;;
11486;SDS011;10510;47.942;9.442;2023-04-06T04:44:43;16.92;;;9.27;;
11486;SDS011;10510;47.942;9.442;2023-04-06T04:46:43;20.58;;;9.25;;
11486;SDS011;10510;47.942;9.442;2023-04-06T04:48:43;18.45;;;8.43;;
11486;SDS011;10510;47.942;9.442;2023-04-06T04:50:44;18.05;;;8.48;;
11486;SDS011;10510;47.942;9.442;2023-04-06T04:52:44;20.75;;;9.45;;
11486;SDS011;10510;47.942;9.442;2023-04-06T04:54:44;18.58;;;8.95;;
11486;SDS011;10510;47.942;9.442;2023-04-06T04:56:46;17.20;;;8.45;;
11486;SDS011;10510;47.942;9.442;2023-04-06T04:58:47;23.23;;;9.25;;
11486;SDS011;10510;47.942;9.442;2023-04-06T05:00:48;20.48;;;9.85;;
11486;SDS011;10510;47.942;9.442;2023-04-06T05:02:48;20.88;;;9.90;;
11486;SDS011;10510;47.942;9.442;2023-04-06T05:04:51;19.30;;;9.13;;
11486;SDS011;10510;47.942;9.442;2023-04-06T05:07:02;21.27;;;9.27;;
11486;SDS011;10510;47.942;9.442;2023-04-06T05:09:06;29.27;;;10.32;;
11486;SDS011;10510;47.942;9.442;2023-04-06T05:11:06;21.42;;;10.52;;
11486;SDS011;10510;47.942;9.442;2023-04-06T05:13:06;20.20;;;10.20;;
11486;SDS011;10510;47.942;9.442;2023-04-06T05:15:07;18.83;;;9.38;;
11486;SDS011;10510;47.942;9.442;2023-04-06T05:17:08;17.27;;;9.20;;
11486;SDS011;10510;47.942;9.442;2023-04-06T05:19:09;21.83;;;9.88;;
11486;SDS011;10510;47.942;9.442;2023-04-06T05:21:11;24.13;;;9.80;;
11486;SDS011;10510;47.942;9.442;2023-04-06T05:23:11;26.05;;;10.60;;
11486;SDS011;10510;47.942;9.442;2023-04-06T05:25:12;19.98;;;9.48;;
11486;SDS011;10510;47.942;9.442;2023-04-06T05:27:13;21.98;;;10.32;;
11486;SDS011;10510;47.942;9.442;2023-04-06T05:29:14;20.60;;;11.10;;
11486;SDS011;10510;47.942;9.442;2023-04-06T05:31:14;25.88;;;9.57;;
11486;SDS011;10510;47.942;9.442;2023-04-06T05:33:16;26.67;;;10.68;;
11486;SDS011;10510;47.942;9.442;2023-04-06T05:35:16;25.67;;;11.63;;
11486;SDS011;10510;47.942;9.442;2023-04-06T05:37:17;23.55;;;9.95;;
11486;SDS011;10510;47.942;9.442;2023-04-06T05:39:17;24.00;;;11.43;;
11486;SDS011;10510;47.942;9.442;2023-04-06T05:41:17;23.23;;;11.38;;
11486;SDS011;10510;47.942;9.442;2023-04-06T05:43:18;26.15;;;12.23;;
11486;SDS011;10510;47.942;9.442;2023-04-06T05:45:18;22.90;;;11.48;;
11486;SDS011;10510;47.942;9.442;2023-04-06T05:47:18;23.60;;;12.32;;
11486;SDS011;10510;47.942;9.442;2023-04-06T05:49:19;30.67;;;12.98;;
11486;SDS011;10510;47.942;9.442;2023-04-06T05:51:19;27.20;;;12.82;;
11486;SDS011;10510;47.942;9.442;2023-04-06T05:53:20;29.20;;;14.48;;
11486;SDS011;10510;47.942;9.442;2023-04-06T05:55:21;48.55;;;21.02;;
11486;SDS011;10510;47.942;9.442;2023-04-06T05:57:21;44.38;;;20.70;;
11486;SDS011;10510;47.942;9.442;2023-04-06T05:59:22;38.58;;;17.90;;
11486;SDS011;10510;47.942;9.442;2023-04-06T06:01:23;47.47;;;21.52;;
11486;SDS011;10510;47.942;9.442;2023-04-06T06:03:23;35.90;;;16.83;;
11486;SDS011;10510;47.942;9.442;2023-04-06T06:05:24;31.63;;;14.45;;
11486;SDS011;10510;47.942;9.442;2023-04-06T06:07:24;34.72;;;16.35;;
11486;SDS011;10510;47.942;9.442;2023-04-06T06:09:25;50.03;;;19.48;;
11486;SDS011;10510;47.942;9.442;2023-04-06T06:11:26;33.67;;;15.90;;
11486;SDS011;10510;47.942;9.442;2023-04-06T06:13:27;32.78;;;15.80;;
11486;SDS011;10510;47.942;9.442;2023-04-06T06:15:27;37.78;;;15.90;;
11486;SDS011;10510;47.942;9.442;2023-04-06T06:17:27;29.52;;;14.13;;
11486;SDS011;10510;47.942;9.442;2023-04-06T06:19:28;46.22;;;19.55;;
11486;SDS011;10510;47.942;9.442;2023-04-06T06:21:28;37.13;;;15.73;;
11486;SDS011;10510;47.942;9.442;2023-04-06T06:23:28;38.78;;;16.90;;
11486;SDS011;10510;47.942;9.442;2023-04-06T06:25:29;39.55;;;18.38;;
11486;SDS011;10510;47.942;9.442;2023-04-06T06:27:30;36.92;;;16.27;;
11486;SDS011;10510;47.942;9.442;2023-04-06T06:29:31;38.20;;;15.43;;
11486;SDS011;10510;47.942;9.442;2023-04-06T06:31:31;35.75;;;15.30;;
11486;SDS011;10510;47.942;9.442;2023-04-06T06:33:32;27.23;;;13.40;;
11486;SDS011;10510;47.942;9.442;2023-04-06T06:35:32;28.02;;;13.77;;
11486;SDS011;10510;47.942;9.442;2023-04-06T06:37:32;27.27;;;12.63;;
11486;SDS011;10510;47.942;9.442;2023-04-06T06:39:32;31.25;;;13.65;;
11486;SDS011;10510;47.942;9.442;2023-04-06T06:41:33;27.17;;;12.55;;
11486;SDS011;10510;47.942;9.442;2023-04-06T06:43:33;27.85;;;12.70;;
11486;SDS011;10510;47.942;9.442;2023-04-06T06:45:33;25.73;;;13.10;;
11486;SDS011;10510;47.942;9.442;2023-04-06T06:47:34;34.70;;;12.35;;
11486;SDS011;10510;47.942;9.442;2023-04-06T06:49:34;29.75;;;13.50;;
11486;SDS011;10510;47.942;9.442;2023-04-06T06:51:35;180.32;;;21.10;;
11486;SDS011;10510;47.942;9.442;2023-04-06T06:53:35;42.70;;;14.43;;
11486;SDS011;10510;47.942;9.442;2023-04-06T06:55:35;29.83;;;14.82;;
11486;SDS011;10510;47.942;9.442;2023-04-06T06:57:35;32.67;;;14.20;;
11486;SDS011;10510;47.942;9.442;2023-04-06T06:59:36;52.00;;;16.15;;
11486;SDS011;10510;47.942;9.442;2023-04-06T07:01:36;44.90;;;19.50;;
11486;SDS011;10510;47.942;9.442;2023-04-06T07:03:37;36.15;;;18.65;;
11486;SDS011;10510;47.942;9.442;2023-04-06T07:05:37;34.03;;;17.98;;
11486;SDS011;10510;47.942;9.442;2023-04-06T07:07:37;32.35;;;16.58;;
11486;SDS011;10510;47.942;9.442;2023-04-06T07:09:37;31.88;;;15.57;;
11486;SDS011;10510;47.942;9.442;2023-04-06T07:11:38;34.60;;;15.05;;
11486;SDS011;10510;47.942;9.442;2023-04-06T07:13:38;33.38;;;15.52;;
11486;SDS011;10510;47.942;9.442;2023-04-06T07:15:38;28.40;;;14.18;;
11486;SDS011;10510;47.942;9.442;2023-04-06T07:17:39;28.40;;;13.23;;
11486;SDS011;10510;47.942;9.442;2023-04-06T07:19:41;31.88;;;12.48;;
11486;SDS011;10510;47.942;9.442;2023-04-06T07:21:41;30.45;;;12.35;;
11486;SDS011;10510;47.942;9.442;2023-04-06T07:23:41;22.90;;;9.63;;
11486;SDS011;10510;47.942;9.442;2023-04-06T07:25:42;17.88;;;8.70;;
11486;SDS011;10510;47.942;9.442;2023-04-06T07:27:42;15.00;;;9.00;;
11486;SDS011;10510;47.942;9.442;2023-04-06T07:29:42;17.58;;;9.20;;
11486;SDS011;10510;47.942;9.442;2023-04-06T07:31:43;20.60;;;9.73;;
11486;SDS011;10510;47.942;9.442;2023-04-06T07:33:43;15.38;;;8.88;;
11486;SDS011;10510;47.942;9.442;2023-04-06T07:35:44;13.73;;;8.32;;
11486;SDS011;10510;47.942;9.442;2023-04-06T07:37:45;17.75;;;9.30;;
11486;SDS011;10510;47.942;9.442;2023-04-06T07:39:45;22.63;;;9.85;;
11486;SDS011;10510;47.942;9.442;2023-04-06T07:41:46;16.33;;;9.05;;
11486;SDS011;10510;47.942;9.442;2023-04-06T07:43:46;18.90;;;9.32;;
11486;SDS011;10510;47.942;9.442;2023-04-06T07:45:46;13.95;;;8.70;;
11486;SDS011;10510;47.942;9.442;2023-04-06T07:47:47;14.50;;;9.25;;
11486;SDS011;10510;47.942;9.442;2023-04-06T07:49:47;17.40;;;8.50;;
11486;SDS011;10510;47.942;9.442;2023-04-06T07:51:47;15.43;;;8.88;;
11486;SDS011;10510;47.942;9.442;2023-04-06T07:53:48;15.88;;;9.45;;
11486;SDS011;10510;47.942;9.442;2023-04-06T07:55:49;14.50;;;8.07;;
11486;SDS011;10510;47.942;9.442;2023-04-06T07:57:50;15.05;;;8.95;;
11486;SDS011;10510;47.942;9.442;2023-04-06T07:59:50;14.80;;;7.85;;
11486;SDS011;10510;47.942;9.442;2023-04-06T08:01:51;15.70;;;8.77;;
11486;SDS011;10510;47.942;9.442;2023-04-06T08:03:51;11.95;;;8.20;;
11486;SDS011;10510;47.942;9.442;2023-04-06T08:05:52;13.88;;;7.75;;
11486;SDS011;10510;47.942;9.442;2023-04-06T08:07:52;13.63;;;8.48;;
11486;SDS011;10510;47.942;9.442;2023-04-06T08:09:53;10.35;;;7.00;;
11486;SDS011;10510;47.942;9.442;2023-04-06T08:11:53;13.18;;;7.80;;
11486;SDS011;10510;47.942;9.442;2023-04-06T08:13:53;13.00;;;8.20;;
11486;SDS011;10510;47.942;9.442;2023-04-06T08:15:56;17.23;;;8.52;;
11486;SDS011;10510;47.942;9.442;2023-04-06T08:17:57;13.50;;;8.00;;
11486;SDS011;10510;47.942;9.442;2023-04-06T08:19:57;13.75;;;7.38;;
11486;SDS011;10510;47.942;9.442;2023-04-06T08:21:58;13.38;;;7.78;;
11486;SDS011;10510;47.942;9.442;2023-04-06T08:23:58;13.15;;;7.43;;
11486;SDS011;10510;47.942;9.442;2023-04-06T08:25:58;13.82;;;8.68;;
11486;SDS011;10510;47.942;9.442;2023-04-06T08:27:58;13.15;;;7.20;;
11486;SDS011;10510;47.942;9.442;2023-04-06T08:29:59;12.90;;;8.05;;
11486;SDS011;10510;47.942;9.442;2023-04-06T08:31:59;12.50;;;7.60;;
11486;SDS011;10510;47.942;9.442;2023-04-06T08:34:00;11.75;;;6.72;;
11486;SDS011;10510;47.942;9.442;2023-04-06T08:36:08;15.80;;;6.85;;
11486;SDS011;10510;47.942;9.442;2023-04-06T08:38:09;13.27;;;7.30;;
11486;SDS011;10510;47.942;9.442;2023-04-06T08:40:09;13.05;;;7.13;;
11486;SDS011;10510;47.942;9.442;2023-04-06T08:42:19;12.10;;;7.53;;
11486;SDS011;10510;47.942;9.442;2023-04-06T08:44:20;11.98;;;7.35;;
11486;SDS011;10510;47.942;9.442;2023-04-06T08:46:20;12.63;;;7.22;;
11486;SDS011;10510;47.942;9.442;2023-04-06T08:48:23;10.45;;;6.85;;
11486;SDS011;10510;47.942;9.442;2023-04-06T08:50:24;12.27;;;7.50;;
11486;SDS011;10510;47.942;9.442;2023-04-06T08:52:25;10.68;;;7.05;;
11486;SDS011;10510;47.942;9.442;2023-04-06T08:54:26;12.27;;;7.30;;
11486;SDS011;10510;47.942;9.442;2023-04-06T08:56:27;12.25;;;7.57;;
11486;SDS011;10510;47.942;9.442;2023-04-06T08:58:28;13.48;;;7.50;;
11486;SDS011;10510;47.942;9.442;2023-04-06T09:00:38;10.07;;;6.68;;
11486;SDS011;10510;47.942;9.442;2023-04-06T09:02:40;11.07;;;7.07;;
11486;SDS011;10510;47.942;9.442;2023-04-06T09:04:43;13.75;;;7.78;;
11486;SDS011;10510;47.942;9.442;2023-04-06T09:06:45;13.95;;;7.47;;
11486;SDS011;10510;47.942;9.442;2023-04-06T09:08:46;15.45;;;8.02;;
11486;SDS011;10510;47.942;9.442;2023-04-06T09:10:46;11.50;;;6.90;;
11486;SDS011;10510;47.942;9.442;2023-04-06T09:12:48;8.60;;;6.40;;
11486;SDS011;10510;47.942;9.442;2023-04-06T09:14:48;12.80;;;7.05;;
11486;SDS011;10510;47.942;9.442;2023-04-06T09:16:48;14.70;;;6.35;;
11486;SDS011;10510;47.942;9.442;2023-04-06T09:18:49;10.48;;;7.68;;
11486;SDS011;10510;47.942;9.442;2023-04-06T09:21:02;11.68;;;7.53;;
11486;SDS011;10510;47.942;9.442;2023-04-06T09:23:03;9.63;;;5.72;;
11486;SDS011;10510;47.942;9.442;2023-04-06T09:25:04;10.95;;;6.18;;
11486;SDS011;10510;47.942;9.442;2023-04-06T09:27:05;11.15;;;8.10;;
11486;SDS011;10510;47.942;9.442;2023-04-06T09:29:05;13.05;;;6.57;;
11486;SDS011;10510;47.942;9.442;2023-04-06T09:31:06;9.90;;;6.32;;
11486;SDS011;10510;47.942;9.442;2023-04-06T09:33:06;9.77;;;5.93;;
11486;SDS011;10510;47.942;9.442;2023-04-06T09:35:07;10.85;;;5.88;;
11486;SDS011;10510;47.942;9.442;2023-04-06T09:37:12;9.73;;;4.95;;
11486;SDS011;10510;47.942;9.442;2023-04-06T09:39:21;11.98;;;5.03;;
11486;SDS011;10510;47.942;9.442;2023-04-06T09:41:27;12.82;;;4.93;;
11486;SDS011;10510;47.942;9.442;2023-04-06T09:43:29;12.15;;;6.35;;
11486;SDS011;10510;47.942;9.442;2023-04-06T09:45:30;6.95;;;4.63;;
11486;SDS011;10510;47.942;9.442;2023-04-06T09:47:31;10.30;;;6.28;;
11486;SDS011;10510;47.942;9.442;2023-04-06T09:49:32;11.05;;;6.40;;
11486;SDS011;10510;47.942;9.442;2023-04-06T09:51:37;9.52;;;4.93;;
11486;SDS011;10510;47.942;9.442;2023-04-06T09:53:40;6.30;;;4.30;;
11486;SDS011;10510;47.942;9.442;2023-04-06T09:55:44;8.85;;;5.07;;
11486;SDS011;10510;47.942;9.442;2023-04-06T10:00:01;9.10;;;4.57;;
11486;SDS011;10510;47.942;9.442;2023-04-06T10:06:43;6.93;;;4.40;;
11486;SDS011;10510;47.942;9.442;2023-04-06T10:08:47;7.63;;;4.65;;
11486;SDS011;10510;47.942;9.442;2023-04-06T10:10:51;11.10;;;7.03;;
11486;SDS011;10510;47.942;9.442;2023-04-06T10:12:52;9.10;;;5.30;;
11486;SDS011;10510;47.942;9.442;2023-04-06T10:14:54;7.55;;;4.82;;
11486;SDS011;10510;47.942;9.442;2023-04-06T10:16:56;8.05;;;4.82;;
11486;SDS011;10510;47.942;9.442;2023-04-06T10:19:00;7.20;;;4.70;;
11486;SDS011;10510;47.942;9.442;2023-04-06T10:21:11;7.05;;;4.07;;
11486;SDS011;10510;47.942;9.442;2023-04-06T10:25:27;8.25;;;4.70;;
11486;SDS011;10510;47.942;9.442;2023-04-06T10:27:32;8.75;;;4.25;;
11486;SDS011;10510;47.942;9.442;2023-04-06T10:29:45;8.15;;;4.55;;
11486;SDS011;10510;47.942;9.442;2023-04-06T10:31:48;8.30;;;4.70;;
11486;SDS011;10510;47.942;9.442;2023-04-06T10:33:59;8.25;;;5.47;;
11486;SDS011;10510;47.942;9.442;2023-04-06T10:37:00;12.65;;;6.60;;
11486;SDS011;10510;47.942;9.442;2023-04-06T10:38:34;8.85;;;5.25;;
11486;SDS011;10510;47.942;9.442;2023-04-06T10:40:36;8.55;;;4.93;;
11486;SDS011;10510;47.942;9.442;2023-04-06T10:42:38;9.25;;;5.47;;
11486;SDS011;10510;47.942;9.442;2023-04-06T10:44:42;7.88;;;5.00;;
11486;SDS011;10510;47.942;9.442;2023-04-06T10:46:52;9.25;;;5.85;;
11486;SDS011;10510;47.942;9.442;2023-04-06T10:48:56;11.70;;;4.78;;
11486;SDS011;10510;47.942;9.442;2023-04-06T10:50:57;7.95;;;5.00;;
11486;SDS011;10510;47.942;9.442;2023-04-06T10:53:01;7.05;;;4.72;;
11486;SDS011;10510;47.942;9.442;2023-04-06T10:55:02;8.73;;;5.93;;
11486;SDS011;10510;47.942;9.442;2023-04-06T10:57:03;7.10;;;4.95;;
11486;SDS011;10510;47.942;9.442;2023-04-06T10:59:03;9.50;;;5.25;;
11486;SDS011;10510;47.942;9.442;2023-04-06T11:01:05;10.93;;;6.97;;
11486;SDS011;10510;47.942;9.442;2023-04-06T11:03:05;8.57;;;5.85;;
11486;SDS011;10510;47.942;9.442;2023-04-06T11:05:06;9.00;;;5.55;;
11486;SDS011;10510;47.942;9.442;2023-04-06T11:07:07;8.15;;;5.65;;
11486;SDS011;10510;47.942;9.442;2023-04-06T11:09:07;9.60;;;5.38;;
11486;SDS011;10510;47.942;9.442;2023-04-06T11:11:10;7.80;;;5.20;;
11486;SDS011;10510;47.942;9.442;2023-04-06T11:13:15;12.68;;;5.78;;
11486;SDS011;10510;47.942;9.442;2023-04-06T11:15:16;10.27;;;6.07;;
11486;SDS011;10510;47.942;9.442;2023-04-06T11:17:16;7.80;;;5.30;;
11486;SDS011;10510;47.942;9.442;2023-04-06T11:19:17;8.52;;;5.47;;
11486;SDS011;10510;47.942;9.442;2023-04-06T11:21:18;8.80;;;5.13;;
11486;SDS011;10510;47.942;9.442;2023-04-06T11:23:23;8.35;;;5.28;;
11486;SDS011;10510;47.942;9.442;2023-04-06T11:25:25;10.15;;;5.82;;
11486;SDS011;10510;47.942;9.442;2023-04-06T11:27:29;8.85;;;5.28;;
11486;SDS011;10510;47.942;9.442;2023-04-06T11:29:32;8.85;;;5.20;;
11486;SDS011;10510;47.942;9.442;2023-04-06T11:31:42;8.73;;;5.43;;
11486;SDS011;10510;47.942;9.442;2023-04-06T11:33:45;8.93;;;5.43;;
11486;SDS011;10510;47.942;9.442;2023-04-06T11:35:46;10.75;;;5.22;;
11486;SDS011;10510;47.942;9.442;2023-04-06T11:37:46;8.85;;;5.00;;
11486;SDS011;10510;47.942;9.442;2023-04-06T11:39:47;9.05;;;5.80;;
11486;SDS011;10510;47.942;9.442;2023-04-06T11:41:51;8.48;;;5.57;;
11486;SDS011;10510;47.942;9.442;2023-04-06T11:43:54;16.40;;;6.07;;
11486;SDS011;10510;47.942;9.442;2023-04-06T11:46:01;10.55;;;5.65;;
11486;SDS011;10510;47.942;9.442;2023-04-06T11:48:03;11.70;;;5.78;;
11486;SDS011;10510;47.942;9.442;2023-04-06T11:50:11;9.05;;;5.07;;
11486;SDS011;10510;47.942;9.442;2023-04-06T11:52:16;8.45;;;5.28;;
11486;SDS011;10510;47.942;9.442;2023-04-06T11:54:33;9.88;;;5.05;;
11486;SDS011;10510;47.942;9.442;2023-04-06T11:56:35;7.32;;;5.28;;
11486;SDS011;10510;47.942;9.442;2023-04-06T11:58:35;8.60;;;5.43;;
11486;SDS011;10510;47.942;9.442;2023-04-06T12:00:36;7.88;;;4.88;;
11486;SDS011;10510;47.942;9.442;2023-04-06T12:02:37;8.05;;;4.30;;
11486;SDS011;10510;47.942;9.442;2023-04-06T12:04:38;8.57;;;5.03;;
11486;SDS011;10510;47.942;9.442;2023-04-06T12:06:38;7.18;;;4.88;;
11486;SDS011;10510;47.942;9.442;2023-04-06T12:08:39;9.02;;;5.18;;